Time;durP1;ratioP1;P1;durP2;ratioP2;P2;SDS_P1;SDS_P2;PMS_P1;PMS_P2;Temp;Humidity;BMP_temperature;BMP_pressure;BME280_temperature;BME280_humidity;BME280_pressure;Samples;Min_cycle;Max_cycle;Signal;HPM_P1;HPM_P2
2022/04/29 00:00:30;;;;;;;;;;;9.20;99.90;;;;;;4936557;28;19979;-82
2022/04/29 00:02:56;;;;;;;;;;;9.10;99.90;;;;;;4936096;28;20302;-78
2022/04/29 00:05:24;;;;;;;;;;;9.10;99.90;;;;;;4948801;28;19927;-78
2022/04/29 00:07:51;;;;;;;;;;;9.10;99.90;;;;;;4956591;28;19931;-80
2022/04/29 00:10:18;;;;;;;;;;;9.10;99.90;;;;;;4998250;28;19936;-79
2022/04/29 00:12:46;;;;;;;;;;;9.10;99.90;;;;;;4945929;28;19937;-78
2022/04/29 00:15:14;;;;;;;;;;;9.20;99.90;;;;;;4939407;28;19934;-78
2022/04/29 00:17:40;;;;;;;;;;;9.20;99.90;;;;;;4942196;28;19931;-78
2022/04/29 00:20:08;;;;;;;;;;;9.20;99.90;;;;;;4942487;28;19933;-77
2022/04/29 00:22:36;;;;;;;;;;;9.20;99.90;;;;;;4941288;28;19934;-78
2022/04/29 00:25:03;;;;;;;;;;;9.10;99.90;;;;;;4947558;28;19933;-76
2022/04/29 00:27:30;;;;;;;;;;;9.10;99.90;;;;;;4945769;28;20283;-79
2022/04/29 00:29:57;;;;;;;;;;;9.10;99.90;;;;;;4948657;28;19926;-79
2022/04/29 00:32:24;;;;;;;;;;;9.10;99.90;;;;;;4950982;28;19927;-80
2022/04/29 00:34:50;;;;;;;;;;;9.10;99.90;;;;;;4938558;28;19927;-78
2022/04/29 00:37:17;;;;;;;;;;;9.10;99.90;;;;;;4935186;28;20397;-79
2022/04/29 00:39:45;;;;;;;;;;;9.10;99.90;;;;;;4948159;28;20412;-78
2022/04/29 00:42:12;;;;;;;;;;;9.00;99.90;;;;;;4979960;28;20286;-79
2022/04/29 00:44:39;;;;;;;;;;;9.00;99.90;;;;;;4939371;28;19926;-79
2022/04/29 00:47:06;;;;;;;;;;;9.00;99.90;;;;;;4932708;29;19926;-80
2022/04/29 00:49:33;;;;;;;;;;;9.00;99.90;;;;;;4959098;28;19933;-82
2022/04/29 00:51:59;;;;;;;;;;;9.00;99.90;;;;;;4962834;28;19926;-79
2022/04/29 00:54:31;;;;;;;;;;;9.00;99.90;;;;;;4945263;28;20025;-78
2022/04/29 00:56:59;;;;;;;;;;;9.00;99.90;;;;;;4940824;28;19933;-78
2022/04/29 00:59:29;;;;;;;;;;;9.00;99.90;;;;;;4939367;28;19935;-78
2022/04/29 01:01:56;;;;;;;;;;;9.00;99.90;;;;;;4946055;28;20304;-79
2022/04/29 01:04:25;;;;;;;;;;;8.90;99.90;;;;;;4953961;28;20396;-79
2022/04/29 01:06:52;;;;;;;;;;;8.90;99.90;;;;;;4958346;28;20317;-78
2022/04/29 01:09:19;;;;;;;;;;;9.00;99.90;;;;;;4938392;28;19932;-79
2022/04/29 01:11:46;;;;;;;;;;;9.00;99.90;;;;;;4963504;28;19934;-79
2022/04/29 01:14:14;;;;;;;;;;;9.00;99.90;;;;;;4935907;28;19933;-79
2022/04/29 01:16:41;;;;;;;;;;;9.00;99.90;;;;;;4951371;28;19933;-79
2022/04/29 01:19:08;;;;;;;;;;;9.00;99.90;;;;;;4936211;28;20306;-80
2022/04/29 01:21:35;;;;;;;;;;;9.00;99.90;;;;;;4957391;28;20021;-83
2022/04/29 01:24:03;;;;;;;;;;;9.00;99.90;;;;;;4950143;28;19931;-83
2022/04/29 01:26:29;;;;;;;;;;;8.90;99.90;;;;;;4944456;28;20017;-81
2022/04/29 01:28:57;;;;;;;;;;;9.00;99.90;;;;;;4945910;28;20014;-81
2022/04/29 01:31:24;;;;;;;;;;;9.00;99.90;;;;;;4949527;28;19937;-79
2022/04/29 01:33:51;;;;;;;;;;;9.00;99.90;;;;;;4944775;28;19973;-81
2022/04/29 01:36:18;;;;;;;;;;;8.90;99.90;;;;;;4934450;29;19942;-79
2022/04/29 01:38:45;;;;;;;;;;;8.90;99.90;;;;;;4935891;28;19927;-80
2022/04/29 01:41:13;;;;;;;;;;;8.90;99.90;;;;;;4934933;28;19938;-78
2022/04/29 01:43:40;;;;;;;;;;;8.80;99.90;;;;;;4934548;28;19926;-79
2022/04/29 01:46:06;;;;;;;;;;;8.80;99.90;;;;;;4932456;28;20293;-79
2022/04/29 01:48:33;;;;;;;;;;;8.80;99.90;;;;;;4942994;28;19927;-78
2022/04/29 01:51:05;;;;;;;;;;;8.80;99.90;;;;;;4950807;28;19927;-80
2022/04/29 01:53:32;;;;;;;;;;;8.80;99.90;;;;;;4939290;28;19930;-80
2022/04/29 01:55:59;;;;;;;;;;;8.90;99.90;;;;;;4949967;28;19928;-80
2022/04/29 01:58:27;;;;;;;;;;;8.80;99.90;;;;;;4949057;28;19937;-79
2022/04/29 02:00:53;;;;;;;;;;;8.90;99.90;;;;;;4946490;28;19927;-78
2022/04/29 02:03:20;;;;;;;;;;;8.90;99.90;;;;;;4960199;28;20072;-78
2022/04/29 02:05:47;;;;;;;;;;;8.90;99.90;;;;;;4974572;28;20309;-78
2022/04/29 02:08:13;;;;;;;;;;;8.90;99.90;;;;;;4941045;28;20329;-79
2022/04/29 02:10:40;;;;;;;;;;;8.90;99.90;;;;;;4933626;28;19927;-80
2022/04/29 02:13:07;;;;;;;;;;;8.90;99.90;;;;;;4936604;28;19937;-79
2022/04/29 02:15:35;;;;;;;;;;;8.90;99.90;;;;;;4979899;28;19933;-78
2022/04/29 02:18:02;;;;;;;;;;;8.80;99.90;;;;;;4955191;28;20282;-78
2022/04/29 02:20:30;;;;;;;;;;;8.80;99.90;;;;;;4945745;29;19930;-78
2022/04/29 02:22:57;;;;;;;;;;;8.80;99.90;;;;;;4948874;28;19937;-79
2022/04/29 02:25:24;;;;;;;;;;;8.80;99.90;;;;;;4949674;28;19981;-79
2022/04/29 02:27:50;;;;;;;;;;;8.80;99.90;;;;;;4941865;28;19933;-78
2022/04/29 02:30:17;;;;;;;;;;;8.80;99.90;;;;;;4939222;28;20025;-79
2022/04/29 02:32:45;;;;;;;;;;;8.80;99.90;;;;;;4935898;28;19935;-78
2022/04/29 02:35:12;;;;;;;;;;;8.80;99.90;;;;;;4944154;28;19954;-79
2022/04/29 02:37:39;;;;;;;;;;;8.80;99.90;;;;;;4936799;28;19935;-79
2022/04/29 02:40:06;;;;;;;;;;;8.80;99.90;;;;;;4958671;28;19976;-78
2022/04/29 02:42:33;;;;;;;;;;;8.80;99.90;;;;;;4961348;28;19927;-78
2022/04/29 02:45:00;;;;;;;;;;;8.80;99.90;;;;;;4947698;28;20408;-79
2022/04/29 02:47:26;;;;;;;;;;;8.70;99.90;;;;;;4953488;28;19936;-79
2022/04/29 02:49:54;;;;;;;;;;;8.70;99.90;;;;;;4937885;28;19926;-79
2022/04/29 02:52:21;;;;;;;;;;;8.70;99.90;;;;;;4954887;28;19933;-79
2022/04/29 02:54:48;;;;;;;;;;;8.60;99.90;;;;;;4953215;28;20374;-79
2022/04/29 02:57:14;;;;;;;;;;;8.60;99.90;;;;;;4996180;28;19933;-79
2022/04/29 02:59:41;;;;;;;;;;;8.60;99.90;;;;;;4946847;28;19927;-79
2022/04/29 03:02:08;;;;;;;;;;;8.60;99.90;;;;;;4939099;28;19927;-79
2022/04/29 03:04:34;;;;;;;;;;;8.60;99.90;;;;;;4966737;28;19924;-79
2022/04/29 03:07:02;;;;;;;;;;;8.50;99.90;;;;;;4942587;28;20020;-79
2022/04/29 03:09:29;;;;;;;;;;;8.50;99.90;;;;;;4938111;28;19927;-79
2022/04/29 03:11:56;;;;;;;;;;;8.60;99.90;;;;;;4972629;28;19925;-79
2022/04/29 03:14:22;;;;;;;;;;;8.50;99.90;;;;;;4990465;28;19948;-78
2022/04/29 03:16:49;;;;;;;;;;;8.50;99.90;;;;;;4944813;28;19940;-78
2022/04/29 03:19:18;;;;;;;;;;;8.50;99.90;;;;;;4944109;28;20025;-78
2022/04/29 03:21:45;;;;;;;;;;;8.50;99.90;;;;;;4935467;28;19935;-79
2022/04/29 03:24:12;;;;;;;;;;;8.50;99.90;;;;;;4944643;28;19927;-78
2022/04/29 03:26:40;;;;;;;;;;;8.50;99.90;;;;;;4940399;28;20333;-78
2022/04/29 03:29:07;;;;;;;;;;;8.50;99.90;;;;;;4950444;28;20162;-78
2022/04/29 03:31:34;;;;;;;;;;;8.40;99.90;;;;;;4937090;28;19933;-78
2022/04/29 03:34:00;;;;;;;;;;;8.40;99.90;;;;;;4954003;28;19935;-77
2022/04/29 03:36:27;;;;;;;;;;;8.30;99.90;;;;;;4967300;28;20398;-77
2022/04/29 03:38:54;;;;;;;;;;;8.30;99.90;;;;;;4972106;28;20308;-79
2022/04/29 03:41:22;;;;;;;;;;;8.30;99.90;;;;;;4962097;28;19938;-67
2022/04/29 03:43:48;;;;;;;;;;;8.30;99.90;;;;;;4967980;28;19918;-70
2022/04/29 03:46:15;;;;;;;;;;;8.30;99.90;;;;;;4975794;28;19953;-81
2022/04/29 03:51:26;;;;;;;;;;;8.30;99.90;;;;;;4960586;28;19918;-68
2022/04/29 03:56:38;;;;;;;;;;;8.30;99.90;;;;;;5404565;23;19924;-83
2022/04/29 03:59:05;;;;;;;;;;;8.30;99.90;;;;;;4983170;28;19927;-83
2022/04/29 04:01:32;;;;;;;;;;;8.20;99.90;;;;;;4951647;29;19969;-84
2022/04/29 04:03:58;;;;;;;;;;;8.20;99.90;;;;;;4951609;29;19927;-84
2022/04/29 04:09:09;;;;;;;;;;;8.10;99.90;;;;;;4962477;29;19934;-81
2022/04/29 04:11:37;;;;;;;;;;;8.10;99.90;;;;;;4971434;28;19926;-81
2022/04/29 04:14:05;;;;;;;;;;;8.00;99.90;;;;;;4971996;28;19987;-82
2022/04/29 04:16:31;;;;;;;;;;;8.00;99.90;;;;;;4973286;28;19998;-82
2022/04/29 04:18:58;;;;;;;;;;;8.00;99.90;;;;;;4984580;28;19976;-83
2022/04/29 04:21:24;;;;;;;;;;;7.90;99.90;;;;;;4973642;28;19961;-83
2022/04/29 04:23:53;;;;;;;;;;;7.90;99.90;;;;;;4972063;28;19918;-82
2022/04/29 04:26:19;;;;;;;;;;;7.90;99.90;;;;;;4968420;28;19937;-82
2022/04/29 04:28:46;;;;;;;;;;;7.80;99.90;;;;;;4967614;29;19962;-81
2022/04/29 04:31:14;;;;;;;;;;;7.80;99.90;;;;;;4955571;29;20034;-82
2022/04/29 04:33:40;;;;;;;;;;;7.80;99.90;;;;;;4972285;29;19994;-81
2022/04/29 04:36:09;;;;;;;;;;;7.80;99.90;;;;;;4956127;28;19929;-82
2022/04/29 04:38:36;;;;;;;;;;;7.80;99.90;;;;;;4960982;28;19981;-82
2022/04/29 04:41:03;;;;;;;;;;;7.70;99.90;;;;;;4953343;29;19945;-82
2022/04/29 04:43:30;;;;;;;;;;;7.70;99.90;;;;;;4948334;29;20476;-81
2022/04/29 04:45:57;;;;;;;;;;;7.70;99.90;;;;;;5044020;28;19957;-82
2022/04/29 04:48:25;;;;;;;;;;;7.70;99.90;;;;;;4965073;29;19934;-82
2022/04/29 04:50:51;;;;;;;;;;;7.60;99.90;;;;;;4957465;28;20006;-83
2022/04/29 04:53:20;;;;;;;;;;;7.60;99.90;;;;;;4969243;28;20032;-81
2022/04/29 04:55:47;;;;;;;;;;;7.70;99.90;;;;;;4969897;28;20486;-81
2022/04/29 04:58:13;;;;;;;;;;;7.60;99.90;;;;;;4960653;28;19933;-81
2022/04/29 05:00:40;;;;;;;;;;;7.60;99.90;;;;;;4957866;28;19938;-83
2022/04/29 05:03:07;;;;;;;;;;;7.70;99.90;;;;;;4970161;28;19945;-82
2022/04/29 05:05:35;;;;;;;;;;;7.60;99.90;;;;;;4976065;28;19927;-83
2022/04/29 05:08:02;;;;;;;;;;;7.60;99.90;;;;;;4957554;29;20014;-81
2022/04/29 05:10:28;;;;;;;;;;;7.60;99.90;;;;;;4976018;28;19965;-82
2022/04/29 05:12:55;;;;;;;;;;;7.70;99.90;;;;;;4977303;28;19938;-70
2022/04/29 05:15:22;;;;;;;;;;;7.70;99.90;;;;;;4977675;28;19974;-80
2022/04/29 05:17:48;;;;;;;;;;;7.70;99.90;;;;;;4977677;28;19926;-80
2022/04/29 05:20:15;;;;;;;;;;;7.80;99.90;;;;;;4962943;28;19965;-81
2022/04/29 05:22:44;;;;;;;;;;;7.80;99.90;;;;;;4960212;28;19933;-85
2022/04/29 05:25:11;;;;;;;;;;;7.80;99.90;;;;;;4971684;28;19935;-76
2022/04/29 05:27:37;;;;;;;;;;;7.80;99.90;;;;;;4978027;28;19917;-74
2022/04/29 05:30:05;;;;;;;;;;;7.80;99.90;;;;;;4978279;28;19933;-70
2022/04/29 05:32:32;;;;;;;;;;;7.70;99.90;;;;;;4978247;28;19982;-71
2022/04/29 05:34:59;;;;;;;;;;;7.80;99.90;;;;;;4964827;28;19938;-72
2022/04/29 05:37:27;;;;;;;;;;;7.80;99.90;;;;;;4971118;28;19911;-72
2022/04/29 05:42:39;;;;;;;;;;;7.90;99.90;;;;;;4975256;28;19933;-75
2022/04/29 05:45:07;;;;;;;;;;;7.90;99.90;;;;;;4969940;28;19911;-70
2022/04/29 05:47:33;;;;;;;;;;;7.90;99.90;;;;;;4958938;28;19930;-68
2022/04/29 05:50:00;;;;;;;;;;;7.90;99.90;;;;;;4958823;28;19930;-69
2022/04/29 05:55:13;;;;;;;;;;;7.90;99.90;;;;;;5446096;22;19938;-78
2022/04/29 05:57:40;;;;;;;;;;;7.90;99.90;;;;;;4954285;28;19911;-78
2022/04/29 06:00:07;;;;;;;;;;;8.00;99.90;;;;;;4957756;28;19911;-73
2022/04/29 06:02:35;;;;;;;;;;;8.10;99.90;;;;;;4941848;28;19911;-67
2022/04/29 06:05:02;;;;;;;;;;;8.00;99.90;;;;;;4938837;28;19934;-84
2022/04/29 06:07:29;;;;;;;;;;;8.00;99.90;;;;;;4945271;28;19923;-82
2022/04/29 06:09:56;;;;;;;;;;;8.10;99.90;;;;;;4955010;28;19922;-88
2022/04/29 06:12:24;;;;;;;;;;;8.20;99.90;;;;;;4949708;28;19911;-88
2022/04/29 06:14:50;;;;;;;;;;;8.40;99.90;;;;;;4962862;28;20906;-89
2022/04/29 06:17:17;;;;;;;;;;;8.40;99.90;;;;;;4934261;28;20608;-88
2022/04/29 06:19:44;;;;;;;;;;;8.70;99.90;;;;;;4930739;28;19977;-86
2022/04/29 06:22:11;;;;;;;;;;;9.00;99.90;;;;;;4945104;28;19958;-89
2022/04/29 06:24:39;;;;;;;;;;;8.90;99.90;;;;;;4945443;28;19967;-75
2022/04/29 06:27:06;;;;;;;;;;;8.90;99.90;;;;;;4941841;28;19967;-69
2022/04/29 06:29:34;;;;;;;;;;;8.80;99.90;;;;;;4943573;28;19927;-84
2022/04/29 06:32:04;;;;;;;;;;;8.90;99.90;;;;;;4931274;28;19935;-87
2022/04/29 06:34:31;;;;;;;;;;;8.80;99.90;;;;;;4949453;28;19942;-86
2022/04/29 06:36:57;;;;;;;;;;;8.60;99.90;;;;;;4940748;29;19911;-84
2022/04/29 06:39:24;;;;;;;;;;;8.50;99.90;;;;;;4933651;29;19938;-85
2022/04/29 06:41:57;;;;;;;;;;;8.70;99.90;;;;;;4933107;29;19951;-81
2022/04/29 06:44:29;;;;;;;;;;;8.60;99.90;;;;;;4923230;29;19911;-66
2022/04/29 06:46:57;;;;;;;;;;;8.80;99.90;;;;;;4934043;29;19935;-85
2022/04/29 06:49:24;;;;;;;;;;;8.70;99.90;;;;;;4935212;28;19912;-83
2022/04/29 06:51:50;;;;;;;;;;;8.70;99.90;;;;;;4924384;29;19971;-87
2022/04/29 06:54:17;;;;;;;;;;;8.90;99.90;;;;;;4893615;28;19934;-76
2022/04/29 06:56:44;;;;;;;;;;;8.80;99.90;;;;;;4894748;28;20018;-77
2022/04/29 06:59:11;;;;;;;;;;;8.70;99.90;;;;;;4897677;28;19942;-76
2022/04/29 07:01:38;;;;;;;;;;;8.70;99.90;;;;;;4894127;28;19931;-77
2022/04/29 07:04:06;;;;;;;;;;;8.70;99.90;;;;;;4894298;28;19963;-76
2022/04/29 07:06:32;;;;;;;;;;;8.90;99.90;;;;;;4899592;28;19958;-75
2022/04/29 07:09:00;;;;;;;;;;;8.90;99.90;;;;;;4901191;28;19935;-76
2022/04/29 07:11:27;;;;;;;;;;;9.10;99.90;;;;;;4903773;28;19961;-75
2022/04/29 07:13:53;;;;;;;;;;;9.50;99.90;;;;;;4903781;28;20050;-76
2022/04/29 07:16:20;;;;;;;;;;;9.30;99.90;;;;;;4902840;28;20021;-76
2022/04/29 07:18:47;;;;;;;;;;;9.40;99.90;;;;;;4902909;28;19927;-76
2022/04/29 07:21:15;;;;;;;;;;;9.60;99.90;;;;;;4912758;29;19931;-76
2022/04/29 07:23:41;;;;;;;;;;;9.80;99.90;;;;;;4909729;29;19928;-76
2022/04/29 07:26:08;;;;;;;;;;;9.60;99.90;;;;;;4908241;29;20298;-75
2022/04/29 07:28:35;;;;;;;;;;;9.60;99.90;;;;;;4903354;29;19927;-76
2022/04/29 07:31:01;;;;;;;;;;;9.80;99.90;;;;;;4902097;29;19935;-75
2022/04/29 07:33:28;;;;;;;;;;;9.80;99.90;;;;;;4904642;28;20379;-76
2022/04/29 07:44:09;;;;;;;;;;;9.20;99.90;;;;;;4912798;29;19938;-76
2022/04/29 07:46:36;;;;;;;;;;;9.40;99.90;;;;;;4908024;29;19982;-77
2022/04/29 07:49:03;;;;;;;;;;;9.40;99.90;;;;;;4899995;28;19971;-77
2022/04/29 07:51:30;;;;;;;;;;;9.40;99.90;;;;;;4899984;28;19931;-77
2022/04/29 07:53:58;;;;;;;;;;;9.30;99.90;;;;;;4903747;28;20623;-77
2022/04/29 07:56:25;;;;;;;;;;;9.30;99.90;;;;;;4913662;29;19927;-78
2022/04/29 07:58:51;;;;;;;;;;;9.50;99.90;;;;;;4907105;29;19942;-77
2022/04/29 08:01:18;;;;;;;;;;;9.60;99.90;;;;;;4911159;28;19927;-79
2022/04/29 08:03:45;;;;;;;;;;;9.50;99.90;;;;;;4915499;28;19927;-77
2022/04/29 08:06:11;;;;;;;;;;;9.60;99.90;;;;;;4905786;29;19934;-78
2022/04/29 08:08:38;;;;;;;;;;;9.70;99.90;;;;;;4903432;29;20522;-78
2022/04/29 08:11:07;;;;;;;;;;;9.60;99.90;;;;;;4906595;29;19927;-76
2022/04/29 08:13:34;;;;;;;;;;;9.70;99.90;;;;;;4910599;29;19927;-79
2022/04/29 08:16:01;;;;;;;;;;;9.60;99.90;;;;;;4902141;29;19928;-76
2022/04/29 08:18:28;;;;;;;;;;;9.70;99.90;;;;;;4898987;29;20381;-77
2022/04/29 08:20:56;;;;;;;;;;;9.80;99.90;;;;;;4908740;29;19932;-77
2022/04/29 08:23:22;;;;;;;;;;;9.80;99.90;;;;;;4895576;28;19927;-76
2022/04/29 08:25:49;;;;;;;;;;;10.00;99.90;;;;;;4894285;29;20023;-78
2022/04/29 08:28:18;;;;;;;;;;;9.70;99.90;;;;;;4905199;29;19933;-79
2022/04/29 08:30:47;;;;;;;;;;;9.60;99.90;;;;;;4910090;29;19927;-79
2022/04/29 08:33:14;;;;;;;;;;;9.60;99.90;;;;;;4901468;29;19970;-76
2022/04/29 08:35:41;;;;;;;;;;;9.70;99.90;;;;;;4899674;29;20280;-77
2022/04/29 08:38:10;;;;;;;;;;;9.70;99.90;;;;;;4905851;29;19928;-77
2022/04/29 08:40:40;;;;;;;;;;;9.70;99.90;;;;;;4900791;29;19927;-77
2022/04/29 08:43:06;;;;;;;;;;;10.00;99.90;;;;;;4902899;29;19928;-80
2022/04/29 08:45:37;;;;;;;;;;;10.00;99.90;;;;;;4907114;28;19928;-76
2022/04/29 08:48:04;;;;;;;;;;;10.00;99.90;;;;;;4899644;29;20383;-76
2022/04/29 08:50:31;;;;;;;;;;;9.90;99.90;;;;;;4896648;28;20437;-81
2022/04/29 08:52:58;;;;;;;;;;;9.90;99.90;;;;;;4899363;28;20429;-77
2022/04/29 09:01:00;;;;;;;;;;;9.80;99.90;;;;;;4904245;29;20375;-76
2022/04/29 09:03:27;;;;;;;;;;;9.90;99.90;;;;;;4895630;28;20342;-77
2022/04/29 09:05:54;;;;;;;;;;;9.90;99.90;;;;;;4890763;29;19932;-78
2022/04/29 09:08:21;;;;;;;;;;;10.20;99.90;;;;;;4898263;28;19942;-78
2022/04/29 09:10:49;;;;;;;;;;;10.20;99.90;;;;;;4893274;28;19935;-78
2022/04/29 09:13:16;;;;;;;;;;;10.20;99.90;;;;;;4899975;28;20097;-78
2022/04/29 09:15:46;;;;;;;;;;;10.30;99.90;;;;;;4896968;29;20463;-77
2022/04/29 09:18:15;;;;;;;;;;;10.50;99.90;;;;;;4897479;28;19950;-77
2022/04/29 09:20:42;;;;;;;;;;;10.70;99.90;;;;;;4898157;28;20362;-76
2022/04/29 09:23:10;;;;;;;;;;;10.70;99.30;;;;;;4895151;29;19989;-77
2022/04/29 09:25:37;;;;;;;;;;;10.70;99.90;;;;;;4898331;28;20350;-76
2022/04/29 09:28:04;;;;;;;;;;;10.80;99.90;;;;;;4895661;29;19928;-76
2022/04/29 09:30:31;;;;;;;;;;;10.80;98.90;;;;;;4901439;29;19935;-77
2022/04/29 09:32:58;;;;;;;;;;;10.70;99.00;;;;;;4899620;29;20313;-75
2022/04/29 09:35:36;;;;;;;;;;;10.80;98.90;;;;;;4896662;29;19938;-78
2022/04/29 09:40:47;;;;;;;;;;;10.90;99.10;;;;;;4899866;28;20045;-78
2022/04/29 09:43:14;;;;;;;;;;;10.80;99.10;;;;;;4902050;28;20321;-78
2022/04/29 09:45:40;;;;;;;;;;;11.00;99.30;;;;;;4905102;29;20330;-85
2022/04/29 09:48:09;;;;;;;;;;;11.00;98.70;;;;;;4898325;29;19971;-80
2022/04/29 09:50:47;;;;;;;;;;;11.00;99.10;;;;;;4900334;28;19927;-75
2022/04/29 09:53:18;;;;;;;;;;;11.00;99.40;;;;;;4900451;29;19927;-79
2022/04/29 09:56:04;;;;;;;;;;;11.60;98.20;;;;;;4899797;29;19954;-78
2022/04/29 09:58:31;;;;;;;;;;;12.00;97.30;;;;;;4902066;29;20006;-78
2022/04/29 10:00:58;;;;;;;;;;;12.40;96.20;;;;;;4900681;29;20482;-74
2022/04/29 10:03:25;;;;;;;;;;;12.30;95.20;;;;;;4899274;29;20347;-77
2022/04/29 10:05:53;;;;;;;;;;;11.40;96.60;;;;;;4898970;29;19936;-78
2022/04/29 10:08:20;;;;;;;;;;;11.40;96.70;;;;;;4903220;28;20401;-77
2022/04/29 10:10:48;;;;;;;;;;;11.60;96.50;;;;;;4902154;28;19996;-79
2022/04/29 10:13:15;;;;;;;;;;;11.60;96.80;;;;;;4896927;29;19927;-76
2022/04/29 10:15:42;;;;;;;;;;;11.70;95.80;;;;;;4903134;29;19943;-79
2022/04/29 10:23:41;;;;;;;;;;;11.90;96.00;;;;;;4898058;28;19950;-86
2022/04/29 10:26:08;;;;;;;;;;;12.70;94.30;;;;;;4900201;28;20026;-85
2022/04/29 10:28:34;;;;;;;;;;;13.10;94.20;;;;;;4894774;28;20398;-83
2022/04/29 10:31:02;;;;;;;;;;;13.10;93.10;;;;;;4899618;29;19970;-79
2022/04/29 10:33:29;;;;;;;;;;;12.80;92.30;;;;;;4897314;29;20006;-85
2022/04/29 10:35:57;;;;;;;;;;;12.80;93.90;;;;;;4897373;28;19969;-75
2022/04/29 10:38:27;;;;;;;;;;;13.60;92.20;;;;;;4899162;29;19935;-74
2022/04/29 10:41:09;;;;;;;;;;;14.20;90.70;;;;;;4926424;28;20005;-75
2022/04/29 10:43:37;;;;;;;;;;;13.60;90.20;;;;;;4904037;29;20388;-76
2022/04/29 10:46:17;;;;;;;;;;;13.10;90.70;;;;;;4900747;29;19928;-75
2022/04/29 10:48:44;;;;;;;;;;;13.20;90.00;;;;;;4899893;28;19941;-80
2022/04/29 10:51:15;;;;;;;;;;;13.00;90.60;;;;;;4901391;29;20394;-75
2022/04/29 10:53:42;;;;;;;;;;;13.10;90.80;;;;;;4906105;29;19937;-78
2022/04/29 10:56:28;;;;;;;;;;;13.20;91.50;;;;;;4908355;29;20053;-76
2022/04/29 10:58:54;;;;;;;;;;;13.80;89.60;;;;;;4900450;29;20030;-79
2022/04/29 11:01:23;;;;;;;;;;;13.00;90.20;;;;;;4913808;29;19927;-78
2022/04/29 11:03:50;;;;;;;;;;;13.30;91.60;;;;;;4904407;29;19928;-78
2022/04/29 11:06:18;;;;;;;;;;;13.80;89.70;;;;;;4913380;29;19982;-80
2022/04/29 11:08:45;;;;;;;;;;;14.00;85.00;;;;;;4898552;29;19942;-76
2022/04/29 11:11:12;;;;;;;;;;;13.90;87.30;;;;;;4897007;28;19927;-78
2022/04/29 11:13:42;;;;;;;;;;;13.70;87.10;;;;;;4899842;29;20298;-76
2022/04/29 11:16:10;;;;;;;;;;;13.50;87.30;;;;;;4907153;29;20276;-77
2022/04/29 11:18:37;;;;;;;;;;;13.80;85.40;;;;;;4898430;29;19927;-77
2022/04/29 11:26:42;;;;;;;;;;;14.00;83.10;;;;;;4905070;28;19938;-78
2022/04/29 11:29:10;;;;;;;;;;;14.20;82.80;;;;;;4906121;29;20286;-78
2022/04/29 11:31:37;;;;;;;;;;;14.20;81.70;;;;;;4903393;29;19928;-77
2022/04/29 11:34:08;;;;;;;;;;;14.00;83.60;;;;;;4900487;29;19933;-77
2022/04/29 11:36:35;;;;;;;;;;;14.20;84.30;;;;;;4907009;29;19927;-77
2022/04/29 11:39:08;;;;;;;;;;;13.90;83.30;;;;;;4906000;29;19935;-76
2022/04/29 11:41:34;;;;;;;;;;;14.50;83.10;;;;;;4898849;28;19934;-78
2022/04/29 11:44:03;;;;;;;;;;;15.20;77.90;;;;;;4896775;28;19942;-76
2022/04/29 11:46:30;;;;;;;;;;;15.30;74.30;;;;;;4904726;29;19982;-76
2022/04/29 11:48:58;;;;;;;;;;;14.80;75.20;;;;;;4900775;29;19935;-75
2022/04/29 11:51:25;;;;;;;;;;;14.90;77.50;;;;;;4903319;29;19936;-76
2022/04/29 11:53:55;;;;;;;;;;;15.20;73.20;;;;;;4905894;28;19978;-74
2022/04/29 11:56:23;;;;;;;;;;;14.40;77.70;;;;;;4899716;29;19971;-76
2022/04/29 11:58:52;;;;;;;;;;;13.70;79.30;;;;;;4909683;29;19935;-76
2022/04/29 12:01:19;;;;;;;;;;;14.30;80.10;;;;;;4904771;28;20175;-76
2022/04/29 12:03:47;;;;;;;;;;;14.50;78.80;;;;;;4901688;29;20010;-75
2022/04/29 12:06:16;;;;;;;;;;;14.70;77.60;;;;;;4902099;29;19935;-76
2022/04/29 12:08:44;;;;;;;;;;;14.30;76.60;;;;;;4902729;29;20375;-75
2022/04/29 12:11:10;;;;;;;;;;;14.50;78.50;;;;;;4900563;28;20611;-75
2022/04/29 12:13:38;;;;;;;;;;;15.00;73.50;;;;;;4908386;29;19939;-75
2022/04/29 12:16:06;;;;;;;;;;;14.90;72.20;;;;;;4906389;28;20018;-75
2022/04/29 12:18:42;;;;;;;;;;;15.80;68.90;;;;;;4902145;29;20492;-79
2022/04/29 12:21:10;;;;;;;;;;;15.60;68.50;;;;;;4899857;29;19936;-74
2022/04/29 12:23:36;;;;;;;;;;;15.30;67.30;;;;;;4902539;29;19934;-74
2022/04/29 12:26:04;;;;;;;;;;;15.00;64.60;;;;;;4903164;29;19927;-77
2022/04/29 12:28:31;;;;;;;;;;;15.30;66.80;;;;;;4901024;29;19974;-77
2022/04/29 12:36:31;;;;;;;;;;;15.30;65.60;;;;;;4903698;28;19942;-73
2022/04/29 12:39:05;;;;;;;;;;;15.00;66.40;;;;;;4904173;29;19938;-74
2022/04/29 12:41:32;;;;;;;;;;;14.80;67.90;;;;;;4902515;29;19939;-76
2022/04/29 12:44:08;;;;;;;;;;;14.50;67.50;;;;;;4901957;28;20397;-75
2022/04/29 12:46:36;;;;;;;;;;;14.60;69.30;;;;;;4902277;29;20291;-75
2022/04/29 12:49:04;;;;;;;;;;;14.90;67.90;;;;;;4901776;29;19928;-73
2022/04/29 12:51:32;;;;;;;;;;;15.30;66.80;;;;;;4902724;28;20370;-78
2022/04/29 12:53:59;;;;;;;;;;;15.90;63.90;;;;;;4905500;29;20337;-74
2022/04/29 12:56:35;;;;;;;;;;;15.70;64.90;;;;;;4902142;28;20274;-73
2022/04/29 12:59:04;;;;;;;;;;;15.40;65.90;;;;;;4896058;28;19931;-73
2022/04/29 13:01:41;;;;;;;;;;;15.60;62.30;;;;;;4900010;29;19934;-73
2022/04/29 13:04:08;;;;;;;;;;;15.80;63.50;;;;;;4909822;28;19927;-75
2022/04/29 13:06:34;;;;;;;;;;;15.30;63.40;;;;;;4902360;28;19934;-73
2022/04/29 13:09:02;;;;;;;;;;;15.10;64.90;;;;;;4900077;29;19939;-75
2022/04/29 13:11:29;;;;;;;;;;;15.20;67.60;;;;;;4903962;29;20021;-76
2022/04/29 13:13:55;;;;;;;;;;;15.00;64.80;;;;;;4914862;29;20025;-75
2022/04/29 13:16:23;;;;;;;;;;;14.80;65.10;;;;;;4903253;29;20374;-75
2022/04/29 13:18:51;;;;;;;;;;;15.20;65.20;;;;;;4896316;29;19958;-77
2022/04/29 13:21:18;;;;;;;;;;;15.10;64.30;;;;;;4902494;29;19928;-78
2022/04/29 13:23:45;;;;;;;;;;;15.40;64.00;;;;;;4899790;29;20027;-85
2022/04/29 13:26:13;;;;;;;;;;;15.50;64.30;;;;;;4900230;29;19935;-82
2022/04/29 13:28:40;;;;;;;;;;;15.40;62.70;;;;;;4900017;29;20021;-76
2022/04/29 13:31:07;;;;;;;;;;;15.40;61.40;;;;;;4894337;29;20007;-81
2022/04/29 13:33:35;;;;;;;;;;;15.90;61.70;;;;;;4904291;29;19927;-77
2022/04/29 13:36:03;;;;;;;;;;;15.40;61.40;;;;;;4903899;28;19993;-73
2022/04/29 13:38:31;;;;;;;;;;;15.60;61.50;;;;;;4895215;28;20021;-78
2022/04/29 13:40:58;;;;;;;;;;;15.60;62.30;;;;;;4901712;29;19974;-80
2022/04/29 13:43:26;;;;;;;;;;;15.80;57.60;;;;;;4902163;29;19931;-78
2022/04/29 13:45:52;;;;;;;;;;;16.10;57.90;;;;;;4903825;28;19966;-76
2022/04/29 13:48:19;;;;;;;;;;;15.90;59.90;;;;;;4895661;28;20657;-80
2022/04/29 13:50:46;;;;;;;;;;;15.60;58.30;;;;;;4908618;29;19934;-77
2022/04/29 13:53:14;;;;;;;;;;;15.70;57.50;;;;;;4906298;29;19927;-77
2022/04/29 13:55:42;;;;;;;;;;;15.50;58.80;;;;;;4903723;29;19935;-83
2022/04/29 13:58:10;;;;;;;;;;;15.30;59.40;;;;;;4900942;28;20030;-84
2022/04/29 14:00:37;;;;;;;;;;;15.80;57.60;;;;;;4898454;28;19927;-84
2022/04/29 14:03:03;;;;;;;;;;;16.10;55.00;;;;;;4903316;29;20317;-85
2022/04/29 14:05:32;;;;;;;;;;;16.40;53.30;;;;;;4901031;29;20088;-76
2022/04/29 14:07:58;;;;;;;;;;;16.50;50.60;;;;;;4899547;28;19978;-77
2022/04/29 14:10:27;;;;;;;;;;;17.00;48.70;;;;;;4897984;29;19927;-79
2022/04/29 14:12:53;;;;;;;;;;;16.60;52.50;;;;;;4897685;29;20030;-76
2022/04/29 14:15:20;;;;;;;;;;;16.30;55.30;;;;;;4897711;29;19931;-76
2022/04/29 14:17:47;;;;;;;;;;;15.90;56.10;;;;;;4899292;29;19927;-77
2022/04/29 14:20:14;;;;;;;;;;;16.20;56.80;;;;;;4896804;28;19927;-76
2022/04/29 14:22:41;;;;;;;;;;;15.90;56.70;;;;;;4893454;29;19931;-79
2022/04/29 14:25:11;;;;;;;;;;;16.00;55.50;;;;;;4896177;29;19942;-74
2022/04/29 14:27:39;;;;;;;;;;;16.90;53.40;;;;;;4893933;28;20406;-75
2022/04/29 14:30:07;;;;;;;;;;;16.50;50.90;;;;;;4900884;29;20397;-75
2022/04/29 14:32:34;;;;;;;;;;;16.60;49.50;;;;;;4898731;28;19935;-75
2022/04/29 14:35:01;;;;;;;;;;;16.30;50.80;;;;;;4896354;29;19977;-76
2022/04/29 14:37:29;;;;;;;;;;;16.10;54.30;;;;;;4899669;28;19937;-74
2022/04/29 14:39:56;;;;;;;;;;;15.50;52.00;;;;;;4897676;29;19931;-75
2022/04/29 14:42:22;;;;;;;;;;;15.60;52.50;;;;;;4899539;29;20338;-74
2022/04/29 14:44:51;;;;;;;;;;;16.00;53.60;;;;;;4899024;29;19935;-75
2022/04/29 14:47:18;;;;;;;;;;;16.00;52.90;;;;;;4897741;29;20010;-73
2022/04/29 14:49:45;;;;;;;;;;;16.10;52.80;;;;;;4892047;28;20410;-74
2022/04/29 14:52:12;;;;;;;;;;;16.00;51.90;;;;;;4898002;29;19994;-75
2022/04/29 14:54:41;;;;;;;;;;;15.90;51.00;;;;;;4905838;28;19928;-75
2022/04/29 14:57:08;;;;;;;;;;;15.70;51.90;;;;;;4913197;28;20026;-74
2022/04/29 14:59:35;;;;;;;;;;;15.60;51.50;;;;;;4901861;29;19935;-77
2022/04/29 15:02:03;;;;;;;;;;;15.70;52.20;;;;;;4898750;29;19935;-78
2022/04/29 15:04:31;;;;;;;;;;;15.60;51.40;;;;;;4899745;28;19931;-77
2022/04/29 15:06:58;;;;;;;;;;;15.80;50.70;;;;;;4900819;29;20532;-77
2022/04/29 15:17:39;;;;;;;;;;;15.20;51.90;;;;;;4904467;29;19934;-77
2022/04/29 15:20:07;;;;;;;;;;;15.30;54.00;;;;;;4893592;29;19934;-79